Time;durP1;ratioP1;P1;durP2;ratioP2;P2;SDS_P1;SDS_P2;PMS_P1;PMS_P2;Temp;Humidity;BMP_temperature;BMP_pressure;BME280_temperature;BME280_humidity;BME280_pressure;Samples;Min_cycle;Max_cycle;Signal;HPM_P1;HPM_P2
2023/10/25 00:01:21;;;;;;;26.00;6.20;;;29.10;90.20;;;;;;4994957;28;20205;-68
2023/10/25 00:03:48;;;;;;;29.77;6.87;;;29.10;94.00;;;;;;4995533;28;20667;-70
2023/10/25 00:06:15;;;;;;;29.90;7.20;;;28.50;99.90;;;;;;4995640;28;20246;-70
2023/10/25 00:08:43;;;;;;;28.93;6.83;;;28.50;99.90;;;;;;4995036;28;20182;-70
2023/10/25 00:11:10;;;;;;;31.47;7.23;;;29.20;99.90;;;;;;4995116;28;20229;-70
2023/10/25 00:13:38;;;;;;;30.43;6.37;;;29.30;99.90;;;;;;4994962;28;20187;-70
2023/10/25 00:16:05;;;;;;;24.80;5.43;;;29.10;99.90;;;;;;4994630;28;20191;-71
2023/10/25 00:18:32;;;;;;;27.03;6.60;;;29.50;99.20;;;;;;4995113;28;20259;-69
2023/10/25 00:20:59;;;;;;;28.10;6.17;;;29.90;99.20;;;;;;4995232;28;20183;-70
2023/10/25 00:23:27;;;;;;;31.97;6.57;;;29.50;96.30;;;;;;4994728;28;20167;-70
2023/10/25 00:25:54;;;;;;;21.47;6.13;;;29.80;97.50;;;;;;4994617;28;20186;-68
2023/10/25 00:28:21;;;;;;;23.42;6.40;;;30.50;93.60;;;;;;4995050;28;20265;-68
2023/10/25 00:30:48;;;;;;;21.73;5.10;;;30.50;91.80;;;;;;4994488;28;20175;-69
2023/10/25 00:33:16;;;;;;;28.02;6.13;;;30.50;90.70;;;;;;4995102;28;20167;-69
2023/10/25 00:35:43;;;;;;;26.98;6.28;;;30.50;92.40;;;;;;4994644;28;20186;-69
2023/10/25 00:38:10;;;;;;;26.40;6.97;;;30.60;92.10;;;;;;4994075;28;20682;-69
2023/10/25 00:40:39;;;;;;;23.17;6.13;;;30.30;92.50;;;;;;4994733;28;20293;-68
2023/10/25 00:43:18;;;;;;;28.77;6.90;;;30.30;91.80;;;;;;4994855;28;20238;-69
2023/10/25 00:46:14;;;;;;;18.87;5.57;;;30.30;90.50;;;;;;4993826;28;20182;-68
2023/10/25 00:48:55;;;;;;;27.23;6.00;;;30.10;91.10;;;;;;4994785;28;20291;-68
2023/10/25 00:51:23;;;;;;;22.70;6.03;;;30.40;93.10;;;;;;4993990;28;20220;-68
2023/10/25 00:53:54;;;;;;;25.67;6.00;;;30.30;90.70;;;;;;4994416;28;20186;-68
2023/10/25 00:56:24;;;;;;;21.67;5.50;;;29.90;94.40;;;;;;4994493;28;20241;-68
2023/10/25 00:58:54;;;;;;;23.00;7.07;;;29.70;94.00;;;;;;4993794;28;20618;-68
2023/10/25 01:01:24;;;;;;;26.03;5.73;;;29.40;94.80;;;;;;4995008;28;20182;-70
2023/10/25 01:03:52;;;;;;;27.53;6.17;;;29.70;94.10;;;;;;4995863;28;20194;-71
2023/10/25 01:06:20;;;;;;;22.57;6.10;;;29.80;95.50;;;;;;4995670;28;20534;-69
2023/10/25 01:08:47;;;;;;;31.10;6.33;;;30.10;92.00;;;;;;4996044;28;20181;-69
2023/10/25 01:11:16;;;;;;;30.30;6.37;;;29.80;88.90;;;;;;4995223;28;20273;-69
2023/10/25 01:13:43;;;;;;;25.77;6.70;;;29.40;93.80;;;;;;4995021;28;20269;-69
2023/10/25 01:16:10;;;;;;;29.27;6.30;;;29.80;93.00;;;;;;4994189;28;20178;-69
2023/10/25 01:18:38;;;;;;;23.27;5.80;;;29.20;98.00;;;;;;4994734;28;20178;-69
2023/10/25 01:21:06;;;;;;;27.37;6.40;;;29.70;95.30;;;;;;4995284;28;20246;-69
2023/10/25 01:23:33;;;;;;;28.20;6.47;;;29.20;94.40;;;;;;4995794;28;20171;-69
2023/10/25 01:26:00;;;;;;;29.10;6.13;;;29.40;95.50;;;;;;4995554;28;20261;-69
2023/10/25 01:28:27;;;;;;;30.17;5.87;;;29.50;93.80;;;;;;4995286;28;20187;-70
2023/10/25 01:30:55;;;;;;;31.50;6.37;;;29.80;91.10;;;;;;4995087;28;20559;-68
2023/10/25 01:33:22;;;;;;;29.10;6.37;;;29.80;95.30;;;;;;4968968;28;20191;-69
2023/10/25 01:35:50;;;;;;;35.93;6.73;;;30.00;98.90;;;;;;4987203;28;20245;-70
2023/10/25 01:38:17;;;;;;;34.03;6.13;;;29.60;97.20;;;;;;4992463;28;20565;-69
2023/10/25 01:40:45;;;;;;;28.03;6.23;;;29.30;98.30;;;;;;4993734;28;20222;-69
2023/10/25 01:43:12;;;;;;;31.23;6.50;;;29.20;99.40;;;;;;4993283;28;20266;-69
2023/10/25 01:45:39;;;;;;;29.30;5.90;;;29.80;99.60;;;;;;4993303;28;20715;-69
2023/10/25 01:48:06;;;;;;;26.03;6.93;;;30.30;93.10;;;;;;4993214;28;20571;-69
2023/10/25 01:50:34;;;;;;;27.53;7.03;;;30.20;97.10;;;;;;4991781;28;20591;-67
2023/10/25 01:59:08;;;;;;;31.87;6.40;;;29.30;99.90;;;;;;5000029;28;20568;-69
2023/10/25 02:01:35;;;;;;;24.40;6.20;;;29.70;99.90;;;;;;5012851;28;20601;-70
2023/10/25 02:04:02;;;;;;;27.57;6.27;;;29.90;96.30;;;;;;5012711;28;20235;-69
2023/10/25 02:06:30;;;;;;;24.80;6.27;;;29.90;94.90;;;;;;5011378;28;20186;-70
2023/10/25 02:08:57;;;;;;;29.97;5.97;;;30.00;96.10;;;;;;5012706;28;20707;-70
2023/10/25 02:11:24;;;;;;;22.17;5.73;;;30.40;95.80;;;;;;5012014;28;20638;-69
2023/10/25 02:13:52;;;;;;;28.27;6.93;;;30.20;92.90;;;;;;5012041;28;20205;-69
2023/10/25 02:16:19;;;;;;;21.23;6.37;;;30.10;95.10;;;;;;5012416;28;20185;-70
2023/10/25 02:18:46;;;;;;;22.17;5.70;;;29.80;96.30;;;;;;5011029;28;20225;-69
2023/10/25 02:21:13;;;;;;;30.63;5.87;;;30.10;92.70;;;;;;5012085;28;20590;-69
2023/10/25 02:23:44;;;;;;;20.10;6.00;;;30.20;90.80;;;;;;5011815;28;20232;-69
2023/10/25 02:26:11;;;;;;;21.67;5.13;;;29.60;91.70;;;;;;5011873;28;20555;-69
2023/10/25 02:28:38;;;;;;;27.13;6.27;;;29.00;98.00;;;;;;5011051;28;20605;-69
2023/10/25 02:31:06;;;;;;;24.03;5.53;;;29.00;97.70;;;;;;5012474;28;20182;-68
2023/10/25 02:33:33;;;;;;;30.47;7.00;;;28.70;99.90;;;;;;5012271;28;20203;-69
2023/10/25 02:36:00;;;;;;;23.30;6.67;;;28.80;99.90;;;;;;5011470;28;20566;-69
2023/10/25 02:38:27;;;;;;;30.00;6.13;;;29.00;98.60;;;;;;5012209;28;20670;-69
2023/10/25 02:40:55;;;;;;;26.23;5.97;;;29.30;98.90;;;;;;5012214;28;20181;-69
2023/10/25 02:43:22;;;;;;;27.83;6.57;;;29.60;96.30;;;;;;5011794;28;20173;-68
2023/10/25 02:45:49;;;;;;;27.03;6.10;;;29.40;99.50;;;;;;5012045;28;20214;-70
2023/10/25 02:48:20;;;;;;;21.20;5.37;;;29.40;97.80;;;;;;5011663;28;20198;-68
2023/10/25 02:50:47;;;;;;;24.67;6.57;;;29.20;99.40;;;;;;5011942;28;20188;-69
2023/10/25 02:53:14;;;;;;;35.10;6.97;;;29.30;99.30;;;;;;5014440;28;20341;-69
2023/10/25 02:55:42;;;;;;;37.20;7.03;;;29.40;98.50;;;;;;5012850;28;20174;-70
2023/10/25 02:58:11;;;;;;;26.50;6.00;;;29.70;99.20;;;;;;5011056;28;20321;-70
2023/10/25 03:00:39;;;;;;;24.20;6.17;;;29.40;96.70;;;;;;5010954;28;20252;-69
2023/10/25 03:03:06;;;;;;;27.40;6.40;;;29.10;97.60;;;;;;5012884;28;20185;-70
2023/10/25 03:05:33;;;;;;;29.33;7.47;;;29.00;99.90;;;;;;5016563;28;20202;-69
2023/10/25 03:08:01;;;;;;;32.07;6.50;;;28.40;99.90;;;;;;5013898;28;20531;-70
2023/10/25 03:10:28;;;;;;;26.90;6.60;;;28.60;99.90;;;;;;5020844;28;20178;-69
2023/10/25 03:12:55;;;;;;;23.17;6.13;;;28.90;99.90;;;;;;5008145;28;20185;-70
2023/10/25 03:15:23;;;;;;;28.83;6.40;;;28.90;99.90;;;;;;5011813;28;20186;-69
2023/10/25 03:17:50;;;;;;;23.27;6.43;;;29.40;99.90;;;;;;5012044;28;20185;-70
2023/10/25 03:20:18;;;;;;;30.90;6.60;;;29.20;99.90;;;;;;5010721;28;20658;-69
2023/10/25 03:22:45;;;;;;;30.43;6.83;;;28.90;99.90;;;;;;5011277;28;20247;-68
2023/10/25 03:25:12;;;;;;;30.07;6.53;;;28.90;99.90;;;;;;5015755;28;20255;-69
2023/10/25 03:27:40;;;;;;;29.53;6.63;;;28.80;99.90;;;;;;5015006;28;20189;-69
2023/10/25 03:30:08;;;;;;;23.83;6.67;;;28.70;99.90;;;;;;5015958;28;20265;-68
2023/10/25 03:32:35;;;;;;;21.80;5.70;;;28.60;99.90;;;;;;5015733;28;20320;-68
2023/10/25 03:35:02;;;;;;;31.50;6.83;;;28.30;99.90;;;;;;5015088;28;20189;-69
2023/10/25 03:37:30;;;;;;;31.07;6.17;;;28.70;99.90;;;;;;5014803;28;20231;-68
2023/10/25 03:39:57;;;;;;;27.83;6.83;;;28.60;99.90;;;;;;5015359;28;20221;-67
2023/10/25 03:42:24;;;;;;;23.37;6.23;;;28.70;99.90;;;;;;5015012;28;20178;-68
2023/10/25 03:44:52;;;;;;;37.73;6.10;;;28.80;99.90;;;;;;5015070;28;20647;-68
2023/10/25 03:47:19;;;;;;;31.43;7.07;;;28.70;99.90;;;;;;5015102;28;20514;-69
2023/10/25 03:49:46;;;;;;;27.10;5.73;;;28.80;99.90;;;;;;5016427;28;20247;-67
2023/10/25 03:52:14;;;;;;;29.67;6.13;;;28.80;99.90;;;;;;5016778;28;20190;-68
2023/10/25 03:54:41;;;;;;;31.67;6.60;;;28.40;99.90;;;;;;5016807;28;20182;-68
2023/10/25 03:57:08;;;;;;;28.90;6.27;;;27.80;99.90;;;;;;5016540;28;20170;-68
2023/10/25 03:59:36;;;;;;;27.37;6.90;;;27.80;99.90;;;;;;5016642;28;20295;-68
2023/10/25 04:02:03;;;;;;;27.23;6.37;;;28.10;99.90;;;;;;4983713;28;20179;-68
2023/10/25 04:04:30;;;;;;;31.40;5.67;;;28.20;99.90;;;;;;5008179;28;20189;-69
2023/10/25 04:06:58;;;;;;;31.63;6.27;;;28.20;99.90;;;;;;5015238;28;20178;-69
2023/10/25 04:09:25;;;;;;;26.17;5.80;;;28.00;99.90;;;;;;5014700;28;20260;-70
2023/10/25 04:11:52;;;;;;;25.60;6.17;;;28.00;99.90;;;;;;5014614;28;20178;-69
2023/10/25 04:14:19;;;;;;;23.40;5.90;;;28.10;99.90;;;;;;5014405;28;20193;-69
2023/10/25 04:16:47;;;;;;;22.90;5.27;;;28.20;99.90;;;;;;5014847;28;20166;-68
2023/10/25 04:19:15;;;;;;;23.27;5.67;;;28.30;99.90;;;;;;5013927;28;20232;-68
2023/10/25 04:21:43;;;;;;;25.73;6.80;;;28.60;99.90;;;;;;5014550;28;20186;-68
2023/10/25 04:24:10;;;;;;;27.63;6.57;;;28.30;99.90;;;;;;5014670;28;20178;-69
2023/10/25 04:26:37;;;;;;;26.13;6.43;;;27.80;99.90;;;;;;5013786;28;20277;-68
2023/10/25 04:29:05;;;;;;;35.10;6.70;;;27.50;99.90;;;;;;5014616;28;20189;-69
2023/10/25 04:31:32;;;;;;;27.43;6.30;;;27.30;99.90;;;;;;5014013;28;20194;-70
2023/10/25 04:34:06;;;;;;;31.33;6.57;;;27.20;99.90;;;;;;5013718;28;20178;-71
2023/10/25 04:36:33;;;;;;;30.23;5.60;;;27.20;99.90;;;;;;5014524;28;20192;-67
2023/10/25 04:39:00;;;;;;;25.50;7.07;;;27.20;99.90;;;;;;5013863;28;20308;-70
2023/10/25 04:41:28;;;;;;;25.10;5.90;;;27.30;99.90;;;;;;5013946;28;20268;-69
2023/10/25 04:43:55;;;;;;;22.93;5.47;;;27.10;99.90;;;;;;5014299;28;20700;-69
2023/10/25 04:46:22;;;;;;;26.07;6.20;;;27.00;99.90;;;;;;5012498;28;20281;-69
2023/10/25 04:48:50;;;;;;;26.90;6.00;;;27.10;99.90;;;;;;5013645;28;20331;-68
2023/10/25 04:51:17;;;;;;;24.63;5.97;;;27.20;99.90;;;;;;5014262;28;20189;-68
2023/10/25 04:53:47;;;;;;;24.13;6.10;;;27.60;99.90;;;;;;5014054;28;20634;-68
2023/10/25 04:56:15;;;;;;;28.97;5.30;;;27.70;99.90;;;;;;5013783;28;20595;-68
2023/10/25 04:58:42;;;;;;;23.50;5.37;;;27.30;99.90;;;;;;5013391;28;20317;-68
2023/10/25 05:01:13;;;;;;;26.83;6.47;;;27.40;99.90;;;;;;5014105;28;20217;-68
2023/10/25 05:03:43;;;;;;;26.87;6.27;;;27.40;99.90;;;;;;5013392;28;20545;-68
2023/10/25 05:06:11;;;;;;;31.47;6.27;;;27.30;99.90;;;;;;5013938;28;20663;-68
2023/10/25 05:08:38;;;;;;;26.90;6.67;;;26.80;99.90;;;;;;5013762;28;20228;-68
2023/10/25 05:11:07;;;;;;;19.57;5.57;;;27.00;99.90;;;;;;5013056;28;20206;-69
2023/10/25 05:13:34;;;;;;;24.73;5.70;;;27.10;99.90;;;;;;5013729;28;20194;-70
2023/10/25 05:16:04;;;;;;;30.53;5.43;;;27.40;99.90;;;;;;5013504;28;20182;-70
2023/10/25 05:18:31;;;;;;;39.67;6.60;;;27.30;99.90;;;;;;5012714;28;20194;-70
2023/10/25 05:21:01;;;;;;;26.23;5.50;;;27.20;99.90;;;;;;5013714;28;20178;-69
2023/10/25 05:23:33;;;;;;;28.30;6.17;;;26.80;99.90;;;;;;5013567;28;20185;-69
2023/10/25 05:26:05;;;;;;;28.50;6.67;;;26.80;99.90;;;;;;5012756;28;20182;-70
2023/10/25 05:28:33;;;;;;;28.37;6.30;;;26.90;99.90;;;;;;5010050;28;20193;-67
2023/10/25 05:31:04;;;;;;;27.13;6.80;;;27.00;99.90;;;;;;5014772;28;20550;-67
2023/10/25 05:33:32;;;;;;;24.53;5.73;;;26.60;99.90;;;;;;5014393;28;20197;-69
2023/10/25 05:36:01;;;;;;;23.23;5.97;;;26.70;99.90;;;;;;5018016;28;20308;-71
2023/10/25 05:38:29;;;;;;;21.30;5.43;;;26.70;99.90;;;;;;5033123;28;20177;-72
2023/10/25 05:40:58;;;;;;;29.30;6.30;;;26.90;99.90;;;;;;5034460;28;20221;-73
2023/10/25 05:43:29;;;;;;;27.53;5.77;;;27.00;99.90;;;;;;5034585;28;20173;-73
2023/10/25 05:45:56;;;;;;;21.87;5.70;;;26.90;99.90;;;;;;5033629;28;20212;-72
2023/10/25 05:48:24;;;;;;;23.40;5.67;;;26.50;99.90;;;;;;5034222;28;20231;-73
2023/10/25 05:50:52;;;;;;;30.50;6.27;;;26.50;99.90;;;;;;5034454;28;20174;-71
2023/10/25 05:53:20;;;;;;;22.63;5.63;;;26.60;99.90;;;;;;5034243;28;20247;-72
2023/10/25 05:55:47;;;;;;;24.67;6.23;;;26.50;99.90;;;;;;5034405;28;20176;-72
2023/10/25 05:58:15;;;;;;;24.20;5.73;;;26.40;99.90;;;;;;5033911;28;20307;-71
2023/10/25 06:00:48;;;;;;;34.07;6.97;;;26.30;99.90;;;;;;5034412;28;20308;-73
2023/10/25 06:03:21;;;;;;;28.80;6.03;;;26.00;99.90;;;;;;5034281;28;20256;-72
2023/10/25 06:05:52;;;;;;;25.40;6.27;;;25.70;99.90;;;;;;5034080;28;20550;-72
2023/10/25 06:08:19;;;;;;;24.30;6.50;;;25.30;99.90;;;;;;5034329;28;20231;-72
2023/10/25 06:10:48;;;;;;;33.73;5.70;;;25.00;99.90;;;;;;5034214;28;20692;-72
2023/10/25 06:13:17;;;;;;;25.33;6.67;;;24.60;99.90;;;;;;5034123;28;20179;-73
2023/10/25 06:15:45;;;;;;;27.33;6.30;;;24.20;99.90;;;;;;5032557;28;20269;-73
2023/10/25 06:18:13;;;;;;;28.63;6.00;;;24.10;99.90;;;;;;5033855;28;20227;-72
2023/10/25 06:20:40;;;;;;;34.57;6.40;;;23.90;99.90;;;;;;5033765;28;20220;-72
2023/10/25 06:23:07;;;;;;;31.33;5.63;;;23.70;99.90;;;;;;5034096;28;20177;-72
2023/10/25 06:25:35;;;;;;;27.97;6.20;;;23.90;99.90;;;;;;5034094;28;20177;-71
2023/10/25 06:28:02;;;;;;;22.00;5.63;;;24.00;99.90;;;;;;5033851;28;20178;-73
2023/10/25 06:30:30;;;;;;;28.53;5.80;;;23.90;99.90;;;;;;5033705;28;20185;-71
2023/10/25 06:33:00;;;;;;;33.63;7.33;;;23.90;99.90;;;;;;5033548;28;20717;-72
2023/10/25 06:35:27;;;;;;;29.93;7.03;;;23.60;99.90;;;;;;5033829;28;20192;-73
2023/10/25 06:37:55;;;;;;;32.63;6.20;;;23.50;99.90;;;;;;5033691;28;20177;-73
2023/10/25 06:40:23;;;;;;;22.57;5.33;;;23.30;99.90;;;;;;5033445;28;20216;-70
2023/10/25 06:42:53;;;;;;;28.63;6.20;;;23.10;99.90;;;;;;5033782;28;20181;-72
2023/10/25 06:45:29;;;;;;;36.13;7.00;;;23.20;99.90;;;;;;5033567;28;20169;-71
2023/10/25 06:47:57;;;;;;;28.73;5.97;;;23.10;99.90;;;;;;5033575;28;20173;-74
2023/10/25 06:50:26;;;;;;;30.90;6.67;;;22.80;99.90;;;;;;5033548;28;20657;-72
2023/10/25 06:52:54;;;;;;;32.60;6.70;;;22.70;99.90;;;;;;5033354;28;20181;-72
2023/10/25 06:55:21;;;;;;;26.23;5.90;;;22.60;99.90;;;;;;5033327;28;20658;-72
2023/10/25 06:57:49;;;;;;;27.60;6.53;;;22.60;99.90;;;;;;5032926;28;20708;-73
2023/10/25 07:00:24;;;;;;;32.43;6.80;;;22.50;99.90;;;;;;5033402;28;20220;-72
2023/10/25 07:02:56;;;;;;;34.23;6.90;;;22.30;99.90;;;;;;5033315;28;20513;-72
2023/10/25 07:05:24;;;;;;;31.47;7.07;;;22.40;99.90;;;;;;5033353;28;20634;-71
2023/10/25 07:07:53;;;;;;;24.87;6.37;;;22.40;99.90;;;;;;5033489;28;20235;-71
2023/10/25 07:10:21;;;;;;;25.37;5.90;;;22.20;99.90;;;;;;5033254;28;20185;-72
2023/10/25 07:12:49;;;;;;;32.67;6.27;;;22.10;99.90;;;;;;5033226;28;20173;-72
2023/10/25 07:15:18;;;;;;;23.10;5.43;;;22.00;99.90;;;;;;5033078;28;20664;-72
2023/10/25 07:17:46;;;;;;;26.43;5.40;;;22.00;99.90;;;;;;5033170;28;20351;-72
2023/10/25 07:20:13;;;;;;;28.13;5.83;;;22.00;99.90;;;;;;5032803;28;20662;-71
2023/10/25 07:22:41;;;;;;;23.50;6.40;;;21.90;99.90;;;;;;5033187;28;20185;-71
2023/10/25 07:25:09;;;;;;;24.63;6.43;;;21.90;99.90;;;;;;5033160;28;20280;-73
2023/10/25 07:27:37;;;;;;;29.73;6.70;;;21.80;99.90;;;;;;5033106;28;20202;-72
2023/10/25 07:33:27;;;;;;;29.30;6.20;;;21.70;99.90;;;;;;5032420;28;20188;-72
2023/10/25 07:35:54;;;;;;;35.70;6.57;;;21.60;99.90;;;;;;5033174;28;20326;-71
2023/10/25 07:38:22;;;;;;;33.77;5.83;;;21.50;99.90;;;;;;5032807;28;20205;-72
2023/10/25 07:40:49;;;;;;;32.93;6.57;;;21.30;99.90;;;;;;5032876;28;20248;-72
2023/10/25 07:43:17;;;;;;;26.33;6.60;;;21.20;99.90;;;;;;5032723;28;20638;-72
2023/10/25 07:45:47;;;;;;;25.93;5.93;;;21.00;99.90;;;;;;5032951;28;20184;-71
2023/10/25 07:48:15;;;;;;;26.97;6.33;;;20.90;99.90;;;;;;5032855;28;20209;-72
2023/10/25 07:50:42;;;;;;;30.03;6.70;;;20.90;99.90;;;;;;5031450;28;20193;-73
2023/10/25 07:53:09;;;;;;;22.60;6.10;;;20.90;99.90;;;;;;5032606;28;20192;-72
2023/10/25 07:55:44;;;;;;;22.43;6.83;;;20.80;99.90;;;;;;5032933;28;20637;-71
2023/10/25 07:58:12;;;;;;;32.13;5.50;;;20.60;99.90;;;;;;5032693;28;20217;-72
2023/10/25 08:00:39;;;;;;;30.57;5.87;;;20.60;99.90;;;;;;5032905;28;20578;-72
2023/10/25 08:03:07;;;;;;;32.17;7.93;;;20.60;99.90;;;;;;5032808;28;20173;-74
2023/10/25 08:05:34;;;;;;;30.70;5.77;;;20.60;99.90;;;;;;5033050;28;20565;-73
2023/10/25 08:08:01;;;;;;;28.43;6.00;;;20.60;99.90;;;;;;5032857;28;20252;-73
2023/10/25 08:10:28;;;;;;;28.27;6.33;;;20.60;99.90;;;;;;5034899;28;20176;-74
2023/10/25 08:12:56;;;;;;;20.77;5.73;;;20.60;99.90;;;;;;5036250;28;20181;-73
2023/10/25 08:15:23;;;;;;;30.13;5.87;;;20.40;99.90;;;;;;5036868;28;20184;-76
2023/10/25 08:17:57;;;;;;;28.40;5.53;;;20.40;99.90;;;;;;5036539;28;20549;-73
2023/10/25 08:20:25;;;;;;;24.67;5.77;;;20.40;99.90;;;;;;5019158;28;20268;-73
2023/10/25 08:22:52;;;;;;;31.47;5.83;;;20.50;99.90;;;;;;5036363;28;20179;-73
2023/10/25 08:25:20;;;;;;;29.87;6.27;;;20.30;99.90;;;;;;5036520;28;20223;-74
2023/10/25 08:27:48;;;;;;;29.40;6.13;;;20.20;99.90;;;;;;5036251;28;20652;-72
2023/10/25 08:30:17;;;;;;;25.47;6.00;;;20.20;99.90;;;;;;5036380;28;20547;-74
2023/10/25 08:32:47;;;;;;;29.53;6.60;;;20.20;99.90;;;;;;5036211;28;20263;-73
2023/10/25 08:35:14;;;;;;;28.23;5.00;;;20.20;99.90;;;;;;5036687;28;20185;-73
2023/10/25 08:37:41;;;;;;;36.17;6.33;;;20.20;99.90;;;;;;5036278;28;20192;-72
2023/10/25 08:40:10;;;;;;;29.90;5.80;;;20.10;99.90;;;;;;5036028;28;20223;-73
2023/10/25 08:42:38;;;;;;;45.70;6.93;;;20.10;99.90;;;;;;5036235;28;20258;-72
2023/10/25 08:45:06;;;;;;;22.77;5.70;;;20.10;99.90;;;;;;5036363;28;20173;-74
2023/10/25 08:47:35;;;;;;;32.70;6.13;;;20.00;99.90;;;;;;5036009;28;20177;-75
2023/10/25 08:50:04;;;;;;;29.80;6.50;;;20.00;99.90;;;;;;5035831;28;20177;-74
2023/10/25 08:52:31;;;;;;;27.23;5.97;;;19.90;99.90;;;;;;5035663;28;20230;-73
2023/10/25 08:54:59;;;;;;;28.13;5.90;;;19.90;99.90;;;;;;5035821;28;20231;-73
2023/10/25 08:57:26;;;;;;;33.30;6.53;;;19.90;99.90;;;;;;5035550;28;20268;-73
2023/10/25 08:59:54;;;;;;;25.93;5.93;;;19.90;99.90;;;;;;5035298;28;20237;-74
2023/10/25 09:02:21;;;;;;;23.97;5.20;;;19.80;99.90;;;;;;5035763;28;20635;-71
2023/10/25 09:05:07;;;;;;;37.93;6.83;;;19.80;99.90;;;;;;5035416;28;20198;-72
2023/10/25 09:07:37;;;;;;;34.20;6.50;;;19.80;99.90;;;;;;5035688;28;20184;-74
2023/10/25 09:10:13;;;;;;;26.80;5.60;;;19.70;99.90;;;;;;5035369;28;20195;-72
2023/10/25 09:12:42;;;;;;;31.83;6.20;;;19.80;99.90;;;;;;5035377;28;20179;-73
2023/10/25 09:15:09;;;;;;;32.67;6.13;;;19.80;99.90;;;;;;5035609;28;20204;-73
2023/10/25 09:17:37;;;;;;;34.13;6.33;;;19.70;99.90;;;;;;5035399;28;20175;-73
2023/10/25 09:20:08;;;;;;;25.00;5.17;;;19.70;99.90;;;;;;5035344;28;20578;-73
2023/10/25 09:22:36;;;;;;;27.03;5.87;;;19.70;99.90;;;;;;5035507;28;20649;-72
2023/10/25 09:25:03;;;;;;;27.73;5.17;;;19.60;99.90;;;;;;5033894;28;20187;-73
2023/10/25 09:27:41;;;;;;;33.07;5.40;;;19.60;99.90;;;;;;5035235;28;20192;-72
2023/10/25 09:30:14;;;;;;;34.13;6.43;;;19.60;99.90;;;;;;5035157;28;20598;-72
2023/10/25 09:32:41;;;;;;;25.87;5.40;;;19.60;99.90;;;;;;5035014;28;20230;-73
2023/10/25 09:35:11;;;;;;;38.17;6.33;;;19.50;99.90;;;;;;5035272;28;20653;-72
2023/10/25 09:37:38;;;;;;;29.73;6.03;;;19.40;99.90;;;;;;5035329;28;20689;-73
2023/10/25 09:40:07;;;;;;;33.43;6.13;;;19.50;99.90;;;;;;5034948;28;20205;-73
2023/10/25 09:42:38;;;;;;;29.93;5.73;;;19.30;99.90;;;;;;5034012;28;20189;-71
2023/10/25 09:45:10;;;;;;;27.37;5.40;;;19.40;99.90;;;;;;5035082;28;20186;-74
2023/10/25 09:47:41;;;;;;;30.20;5.47;;;19.40;99.90;;;;;;5034947;28;20168;-72
2023/10/25 09:50:23;;;;;;;24.50;5.83;;;19.40;99.90;;;;;;5017789;28;20192;-73
2023/10/25 09:52:58;;;;;;;32.33;5.20;;;19.40;99.90;;;;;;5034585;28;20181;-72
2023/10/25 09:55:28;;;;;;;30.97;5.60;;;19.40;99.90;;;;;;5034932;28;20549;-73
2023/10/25 09:57:57;;;;;;;34.23;7.10;;;19.40;99.90;;;;;;5034028;28;20233;-72
2023/10/25 10:00:25;;;;;;;27.67;5.13;;;19.40;99.90;;;;;;5034794;28;20294;-74
2023/10/25 10:03:22;;;;;;;28.60;6.57;;;19.40;99.90;;;;;;5034625;28;20177;-73
2023/10/25 10:06:12;;;;;;;27.70;5.33;;;19.40;99.90;;;;;;5004076;28;20569;-71
2023/10/25 10:08:53;;;;;;;25.13;5.93;;;19.50;99.90;;;;;;4999813;28;20196;-74
2023/10/25 10:11:27;;;;;;;22.23;4.77;;;19.60;99.90;;;;;;4986969;28;20189;-72
2023/10/25 10:14:32;;;;;;;29.63;5.83;;;19.50;99.90;;;;;;5012895;28;20202;-74
2023/10/25 10:23:05;;;;;;;31.23;5.37;;;19.30;99.90;;;;;;4972072;28;20284;-72
2023/10/25 10:25:45;;;;;;;30.57;5.97;;;19.30;99.90;;;;;;4967439;28;20191;-73
2023/10/25 10:28:14;;;;;;;21.47;5.03;;;19.20;99.90;;;;;;4972529;28;20175;-75
2023/10/25 10:30:42;;;;;;;26.33;4.83;;;19.20;99.90;;;;;;4973783;28;20625;-73
2023/10/25 10:33:12;;;;;;;27.13;5.43;;;19.30;99.90;;;;;;4972828;28;20182;-70
2023/10/25 10:36:04;;;;;;;25.43;5.43;;;19.30;99.90;;;;;;4973455;28;20561;-73
2023/10/25 10:39:16;;;;;;;21.13;4.53;;;19.30;99.90;;;;;;4973608;28;20230;-74
2023/10/25 10:41:45;;;;;;;25.80;5.27;;;19.30;99.90;;;;;;4967819;28;20208;-72
2023/10/25 10:44:13;;;;;;;26.50;6.03;;;19.20;99.90;;;;;;4972984;28;20609;-74
2023/10/25 10:47:08;;;;;;;22.03;4.37;;;19.10;99.90;;;;;;4972859;28;20193;-70
2023/10/25 10:49:36;;;;;;;29.33;5.17;;;19.20;99.90;;;;;;4971320;28;20382;-71
2023/10/25 10:52:06;;;;;;;28.43;5.57;;;19.10;99.90;;;;;;4971905;28;20326;-71
2023/10/25 10:54:34;;;;;;;27.57;5.53;;;19.10;99.90;;;;;;4972454;28;20217;-73
2023/10/25 10:57:02;;;;;;;22.50;4.57;;;19.00;99.90;;;;;;4975938;28;20187;-74
2023/10/25 10:59:29;;;;;;;26.97;4.70;;;19.10;99.90;;;;;;4981564;28;20576;-71
2023/10/25 11:01:57;;;;;;;20.53;4.63;;;19.10;99.90;;;;;;4971732;28;20214;-73
2023/10/25 11:04:24;;;;;;;21.37;4.70;;;19.10;99.90;;;;;;4972051;28;20268;-73
2023/10/25 11:06:52;;;;;;;28.07;4.70;;;19.10;99.90;;;;;;4972563;28;20185;-73
2023/10/25 11:09:19;;;;;;;22.60;4.90;;;19.00;99.90;;;;;;4972427;28;20664;-71
2023/10/25 11:11:46;;;;;;;22.13;4.60;;;19.00;99.90;;;;;;4973207;28;20537;-73
2023/10/25 11:14:14;;;;;;;19.30;4.03;;;19.00;99.90;;;;;;4972545;28;20246;-71
2023/10/25 11:16:41;;;;;;;25.23;4.90;;;18.90;99.90;;;;;;4972494;28;20210;-73
2023/10/25 11:19:09;;;;;;;27.70;4.90;;;18.70;99.90;;;;;;4972970;28;20722;-72
2023/10/25 11:21:37;;;;;;;25.23;4.40;;;18.70;99.90;;;;;;4972955;28;20247;-71
2023/10/25 11:24:06;;;;;;;28.13;4.93;;;18.60;99.90;;;;;;4972018;28;20263;-73
2023/10/25 11:26:39;;;;;;;27.20;4.80;;;18.50;99.90;;;;;;4972528;28;20237;-73
2023/10/25 11:29:07;;;;;;;22.43;4.07;;;18.40;99.90;;;;;;4972734;28;20218;-70
2023/10/25 11:31:35;;;;;;;29.03;4.50;;;18.40;99.90;;;;;;4972654;28;20179;-71
2023/10/25 11:34:02;;;;;;;26.90;6.13;;;18.40;99.90;;;;;;4971580;28;20211;-72
2023/10/25 11:36:31;;;;;;;27.17;5.00;;;18.30;99.90;;;;;;4972612;28;20261;-71
2023/10/25 11:39:06;;;;;;;18.30;4.63;;;18.30;99.90;;;;;;4971998;28;20518;-72
2023/10/25 11:41:33;;;;;;;20.67;4.47;;;18.20;99.90;;;;;;4971575;28;20187;-72
2023/10/25 11:44:02;;;;;;;35.17;5.13;;;18.30;99.90;;;;;;4973623;28;20613;-73
2023/10/25 11:46:35;;;;;;;17.13;4.07;;;18.20;99.90;;;;;;4975730;28;20594;-73
2023/10/25 11:49:04;;;;;;;18.73;3.90;;;18.20;99.90;;;;;;4976427;28;20188;-72
2023/10/25 11:51:36;;;;;;;21.40;5.70;;;18.20;99.90;;;;;;4976182;28;20559;-70
2023/10/25 11:54:05;;;;;;;26.70;4.53;;;18.20;99.90;;;;;;4975842;28;20191;-72
2023/10/25 11:56:33;;;;;;;21.23;3.87;;;18.20;99.90;;;;;;4976071;28;20200;-71
2023/10/25 11:59:00;;;;;;;24.87;4.37;;;18.10;99.90;;;;;;4976250;28;20258;-71
2023/10/25 12:01:27;;;;;;;28.70;4.97;;;18.00;99.90;;;;;;4975216;28;20286;-72
2023/10/25 12:03:55;;;;;;;23.73;4.57;;;18.00;99.90;;;;;;4975890;28;20179;-72
2023/10/25 12:06:23;;;;;;;24.13;4.87;;;17.90;99.90;;;;;;4976086;28;20284;-71
2023/10/25 12:08:50;;;;;;;20.37;4.40;;;17.80;99.90;;;;;;4956349;28;20186;-70
2023/10/25 12:11:18;;;;;;;19.30;4.23;;;17.90;99.90;;;;;;4956948;28;20216;-73
2023/10/25 12:13:45;;;;;;;18.83;3.53;;;17.80;99.90;;;;;;4956527;28;20276;-71
2023/10/25 12:16:12;;;;;;;22.70;5.07;;;17.70;99.90;;;;;;4971505;28;20203;-69
2023/10/25 12:18:39;;;;;;;25.37;4.57;;;17.70;99.90;;;;;;4975925;28;20203;-73
2023/10/25 12:21:08;;;;;;;21.13;4.63;;;17.70;99.90;;;;;;4975846;28;20250;-71
2023/10/25 12:23:35;;;;;;;21.67;4.20;;;17.60;99.90;;;;;;4975192;28;20734;-72
2023/10/25 12:26:03;;;;;;;28.13;5.10;;;17.70;99.90;;;;;;4975197;28;20249;-70
2023/10/25 12:28:30;;;;;;;27.43;4.50;;;17.50;99.90;;;;;;4975805;28;20183;-71
2023/10/25 12:30:58;;;;;;;16.10;4.13;;;17.50;99.90;;;;;;4975252;28;20601;-71
2023/10/25 12:33:25;;;;;;;21.87;3.73;;;17.40;99.90;;;;;;4974597;28;20191;-71
2023/10/25 12:35:53;;;;;;;24.60;5.03;;;17.40;99.90;;;;;;4975427;28;20202;-70
2023/10/25 12:38:20;;;;;;;18.20;3.50;;;17.30;99.90;;;;;;4974794;28;20191;-71
2023/10/25 12:40:47;;;;;;;23.17;5.07;;;17.30;99.90;;;;;;4975499;28;20219;-71
2023/10/25 12:43:15;;;;;;;24.23;4.60;;;17.20;99.90;;;;;;4975532;28;20180;-72
2023/10/25 12:45:42;;;;;;;29.47;4.50;;;17.20;99.90;;;;;;4974657;28;20188;-70
2023/10/25 12:48:09;;;;;;;18.03;3.67;;;17.10;99.90;;;;;;4975411;28;20679;-70
2023/10/25 12:50:37;;;;;;;22.60;4.03;;;17.10;99.90;;;;;;4975138;28;20183;-68
2023/10/25 12:53:05;;;;;;;24.93;4.60;;;17.10;99.90;;;;;;4973765;28;20288;-68
2023/10/25 12:55:32;;;;;;;26.53;5.10;;;17.00;99.90;;;;;;4974634;28;20203;-71
2023/10/25 12:57:59;;;;;;;19.27;3.93;;;17.00;99.90;;;;;;4975079;28;20187;-68
2023/10/25 13:00:26;;;;;;;21.03;3.97;;;16.90;99.90;;;;;;4974376;28;20270;-70